sensor_id;sensor_type;location;lat;lon;timestamp;P1;durP1;ratioP1;P2;durP2;ratioP2
22916;SDS011;11624;53.250;7.456;2023-01-15T00:00:59;0.08;;;0.08;;
22916;SDS011;11624;53.250;7.456;2023-01-15T00:03:28;0.10;;;0.10;;
22916;SDS011;11624;53.250;7.456;2023-01-15T00:06:00;0.08;;;0.08;;
22916;SDS011;11624;53.250;7.456;2023-01-15T00:08:28;1.25;;;0.90;;
22916;SDS011;11624;53.250;7.456;2023-01-15T00:10:58;2.83;;;0.40;;
22916;SDS011;11624;53.250;7.456;2023-01-15T00:13:30;0.00;;;0.00;;
22916;SDS011;11624;53.250;7.456;2023-01-15T00:16:01;0.10;;;0.10;;
22916;SDS011;11624;53.250;7.456;2023-01-15T00:18:30;0.00;;;0.00;;
22916;SDS011;11624;53.250;7.456;2023-01-15T00:20:58;0.68;;;0.35;;
22916;SDS011;11624;53.250;7.456;2023-01-15T00:23:27;0.43;;;0.28;;
22916;SDS011;11624;53.250;7.456;2023-01-15T00:26:14;0.10;;;0.10;;
22916;SDS011;11624;53.250;7.456;2023-01-15T00:29:00;0.20;;;0.20;;
22916;SDS011;11624;53.250;7.456;2023-01-15T00:31:29;0.05;;;0.05;;
22916;SDS011;11624;53.250;7.456;2023-01-15T00:33:58;0.90;;;0.55;;
22916;SDS011;11624;53.250;7.456;2023-01-15T00:36:26;3.13;;;0.73;;
22916;SDS011;11624;53.250;7.456;2023-01-15T00:38:54;0.17;;;0.17;;
22916;SDS011;11624;53.250;7.456;2023-01-15T00:41:24;0.38;;;0.38;;
22916;SDS011;11624;53.250;7.456;2023-01-15T00:43:52;0.10;;;0.10;;
22916;SDS011;11624;53.250;7.456;2023-01-15T00:46:20;0.10;;;0.10;;
22916;SDS011;11624;53.250;7.456;2023-01-15T00:48:48;1.90;;;0.40;;
22916;SDS011;11624;53.250;7.456;2023-01-15T00:51:17;0.10;;;0.10;;
22916;SDS011;11624;53.250;7.456;2023-01-15T00:53:45;0.20;;;0.20;;
22916;SDS011;11624;53.250;7.456;2023-01-15T00:56:13;2.63;;;0.82;;
22916;SDS011;11624;53.250;7.456;2023-01-15T00:58:42;1.77;;;1.00;;
22916;SDS011;11624;53.250;7.456;2023-01-15T01:01:11;0.10;;;0.10;;
22916;SDS011;11624;53.250;7.456;2023-01-15T01:03:40;0.28;;;0.28;;
22916;SDS011;11624;53.250;7.456;2023-01-15T01:06:08;3.30;;;0.73;;
22916;SDS011;11624;53.250;7.456;2023-01-15T01:08:36;0.30;;;0.30;;
22916;SDS011;11624;53.250;7.456;2023-01-15T01:11:06;0.95;;;0.73;;
22916;SDS011;11624;53.250;7.456;2023-01-15T01:13:36;0.20;;;0.20;;
22916;SDS011;11624;53.250;7.456;2023-01-15T01:16:14;0.20;;;0.20;;
22916;SDS011;11624;53.250;7.456;2023-01-15T01:18:48;1.17;;;0.63;;
22916;SDS011;11624;53.250;7.456;2023-01-15T01:21:16;0.20;;;0.20;;
22916;SDS011;11624;53.250;7.456;2023-01-15T01:23:44;0.10;;;0.10;;
22916;SDS011;11624;53.250;7.456;2023-01-15T01:26:12;0.45;;;0.45;;
22916;SDS011;11624;53.250;7.456;2023-01-15T01:28:42;0.10;;;0.10;;
22916;SDS011;11624;53.250;7.456;2023-01-15T01:31:11;0.22;;;0.22;;
22916;SDS011;11624;53.250;7.456;2023-01-15T01:33:39;8.48;;;2.50;;
22916;SDS011;11624;53.250;7.456;2023-01-15T01:36:08;0.00;;;0.00;;
22916;SDS011;11624;53.250;7.456;2023-01-15T01:38:36;0.00;;;0.00;;
22916;SDS011;11624;53.250;7.456;2023-01-15T01:41:04;0.65;;;0.45;;
22916;SDS011;11624;53.250;7.456;2023-01-15T01:43:50;0.20;;;0.20;;
22916;SDS011;11624;53.250;7.456;2023-01-15T01:46:24;0.30;;;0.30;;
22916;SDS011;11624;53.250;7.456;2023-01-15T01:48:54;1.08;;;0.85;;
22916;SDS011;11624;53.250;7.456;2023-01-15T01:51:27;1.55;;;1.00;;
22916;SDS011;11624;53.250;7.456;2023-01-15T01:54:02;0.25;;;0.25;;
22916;SDS011;11624;53.250;7.456;2023-01-15T01:56:31;0.35;;;0.35;;
22916;SDS011;11624;53.250;7.456;2023-01-15T01:59:02;3.42;;;0.65;;
22916;SDS011;11624;53.250;7.456;2023-01-15T02:01:33;0.15;;;0.15;;
22916;SDS011;11624;53.250;7.456;2023-01-15T02:04:02;1.75;;;1.55;;
22916;SDS011;11624;53.250;7.456;2023-01-15T02:06:34;0.10;;;0.10;;
22916;SDS011;11624;53.250;7.456;2023-01-15T02:09:03;1.55;;;1.00;;
22916;SDS011;11624;53.250;7.456;2023-01-15T02:11:32;1.10;;;0.80;;
22916;SDS011;11624;53.250;7.456;2023-01-15T02:14:03;1.65;;;0.57;;
22916;SDS011;11624;53.250;7.456;2023-01-15T02:16:38;0.10;;;0.10;;
22916;SDS011;11624;53.250;7.456;2023-01-15T02:19:13;0.40;;;0.38;;
22916;SDS011;11624;53.250;7.456;2023-01-15T02:21:50;0.10;;;0.10;;
22916;SDS011;11624;53.250;7.456;2023-01-15T02:24:23;0.52;;;0.52;;
22916;SDS011;11624;53.250;7.456;2023-01-15T02:27:06;0.30;;;0.30;;
22916;SDS011;11624;53.250;7.456;2023-01-15T02:29:39;0.20;;;0.20;;
22916;SDS011;11624;53.250;7.456;2023-01-15T02:32:19;0.10;;;0.10;;
22916;SDS011;11624;53.250;7.456;2023-01-15T02:34:55;0.17;;;0.17;;
22916;SDS011;11624;53.250;7.456;2023-01-15T02:37:31;0.90;;;0.25;;
22916;SDS011;11624;53.250;7.456;2023-01-15T02:40:05;1.05;;;0.30;;
22916;SDS011;11624;53.250;7.456;2023-01-15T02:42:35;0.20;;;0.20;;
22916;SDS011;11624;53.250;7.456;2023-01-15T02:45:06;0.17;;;0.17;;
22916;SDS011;11624;53.250;7.456;2023-01-15T02:47:37;0.03;;;0.03;;
22916;SDS011;11624;53.250;7.456;2023-01-15T02:50:10;0.03;;;0.03;;
22916;SDS011;11624;53.250;7.456;2023-01-15T02:52:41;0.00;;;0.00;;
22916;SDS011;11624;53.250;7.456;2023-01-15T02:55:16;2.20;;;1.13;;
22916;SDS011;11624;53.250;7.456;2023-01-15T02:57:50;3.70;;;0.38;;
22916;SDS011;11624;53.250;7.456;2023-01-15T03:00:23;0.45;;;0.20;;
22916;SDS011;11624;53.250;7.456;2023-01-15T03:02:55;0.00;;;0.00;;
22916;SDS011;11624;53.250;7.456;2023-01-15T03:05:27;0.43;;;0.40;;
22916;SDS011;11624;53.250;7.456;2023-01-15T03:08:00;0.70;;;0.30;;
22916;SDS011;11624;53.250;7.456;2023-01-15T03:10:35;0.25;;;0.25;;
22916;SDS011;11624;53.250;7.456;2023-01-15T03:13:10;0.38;;;0.28;;
22916;SDS011;11624;53.250;7.456;2023-01-15T03:15:50;0.63;;;0.52;;
22916;SDS011;11624;53.250;7.456;2023-01-15T03:18:41;0.20;;;0.20;;
22916;SDS011;11624;53.250;7.456;2023-01-15T03:21:15;0.15;;;0.15;;
22916;SDS011;11624;53.250;7.456;2023-01-15T03:23:50;5.47;;;1.75;;
22916;SDS011;11624;53.250;7.456;2023-01-15T03:26:24;2.90;;;1.13;;
22916;SDS011;11624;53.250;7.456;2023-01-15T03:28:54;0.20;;;0.20;;
22916;SDS011;11624;53.250;7.456;2023-01-15T03:31:23;0.75;;;0.40;;
22916;SDS011;11624;53.250;7.456;2023-01-15T03:33:51;0.45;;;0.40;;
22916;SDS011;11624;53.250;7.456;2023-01-15T03:36:21;0.30;;;0.30;;
22916;SDS011;11624;53.250;7.456;2023-01-15T03:38:50;1.55;;;0.50;;
22916;SDS011;11624;53.250;7.456;2023-01-15T03:41:49;4.38;;;0.50;;
22916;SDS011;11624;53.250;7.456;2023-01-15T03:44:29;0.52;;;0.45;;
22916;SDS011;11624;53.250;7.456;2023-01-15T03:47:07;0.10;;;0.10;;
22916;SDS011;11624;53.250;7.456;2023-01-15T03:49:49;1.33;;;0.50;;
22916;SDS011;11624;53.250;7.456;2023-01-15T03:52:30;0.20;;;0.20;;
22916;SDS011;11624;53.250;7.456;2023-01-15T03:55:05;0.20;;;0.20;;
22916;SDS011;11624;53.250;7.456;2023-01-15T03:57:47;0.00;;;0.00;;
22916;SDS011;11624;53.250;7.456;2023-01-15T04:00:19;0.10;;;0.10;;
22916;SDS011;11624;53.250;7.456;2023-01-15T04:02:55;2.05;;;0.35;;
22916;SDS011;11624;53.250;7.456;2023-01-15T04:05:27;2.35;;;0.55;;
22916;SDS011;11624;53.250;7.456;2023-01-15T04:07:55;0.10;;;0.10;;
22916;SDS011;11624;53.250;7.456;2023-01-15T04:10:28;0.10;;;0.10;;
22916;SDS011;11624;53.250;7.456;2023-01-15T04:12:57;0.20;;;0.20;;
22916;SDS011;11624;53.250;7.456;2023-01-15T04:15:26;0.10;;;0.10;;
22916;SDS011;11624;53.250;7.456;2023-01-15T04:17:55;0.20;;;0.20;;
22916;SDS011;11624;53.250;7.456;2023-01-15T04:20:26;0.00;;;0.00;;
22916;SDS011;11624;53.250;7.456;2023-01-15T04:22:54;0.40;;;0.40;;
22916;SDS011;11624;53.250;7.456;2023-01-15T04:25:22;0.30;;;0.30;;
22916;SDS011;11624;53.250;7.456;2023-01-15T04:27:52;0.10;;;0.10;;
22916;SDS011;11624;53.250;7.456;2023-01-15T04:30:20;1.77;;;0.95;;
22916;SDS011;11624;53.250;7.456;2023-01-15T04:32:50;0.70;;;0.50;;
22916;SDS011;11624;53.250;7.456;2023-01-15T04:35:19;2.28;;;1.45;;
22916;SDS011;11624;53.250;7.456;2023-01-15T04:37:47;0.40;;;0.40;;
22916;SDS011;11624;53.250;7.456;2023-01-15T04:40:15;2.10;;;0.75;;
22916;SDS011;11624;53.250;7.456;2023-01-15T04:42:57;0.20;;;0.20;;
22916;SDS011;11624;53.250;7.456;2023-01-15T04:45:43;0.17;;;0.17;;
22916;SDS011;11624;53.250;7.456;2023-01-15T04:48:13;1.35;;;0.75;;
22916;SDS011;11624;53.250;7.456;2023-01-15T04:50:41;0.22;;;0.22;;
22916;SDS011;11624;53.250;7.456;2023-01-15T04:53:09;0.20;;;0.20;;
22916;SDS011;11624;53.250;7.456;2023-01-15T04:55:37;0.28;;;0.25;;
22916;SDS011;11624;53.250;7.456;2023-01-15T04:58:06;1.08;;;0.50;;
22916;SDS011;11624;53.250;7.456;2023-01-15T05:00:34;0.10;;;0.10;;
22916;SDS011;11624;53.250;7.456;2023-01-15T05:03:02;0.88;;;0.80;;
22916;SDS011;11624;53.250;7.456;2023-01-15T05:05:32;1.85;;;1.17;;
22916;SDS011;11624;53.250;7.456;2023-01-15T05:08:00;2.42;;;1.13;;
22916;SDS011;11624;53.250;7.456;2023-01-15T05:10:28;0.95;;;0.38;;
22916;SDS011;11624;53.250;7.456;2023-01-15T05:12:56;0.10;;;0.10;;
22916;SDS011;11624;53.250;7.456;2023-01-15T05:15:24;0.45;;;0.45;;
22916;SDS011;11624;53.250;7.456;2023-01-15T05:17:52;1.20;;;0.63;;
22916;SDS011;11624;53.250;7.456;2023-01-15T05:20:20;6.45;;;0.30;;
22916;SDS011;11624;53.250;7.456;2023-01-15T05:22:50;0.03;;;0.03;;
22916;SDS011;11624;53.250;7.456;2023-01-15T05:25:18;0.40;;;0.40;;
22916;SDS011;11624;53.250;7.456;2023-01-15T05:27:46;0.10;;;0.10;;
22916;SDS011;11624;53.250;7.456;2023-01-15T05:30:14;0.22;;;0.22;;
22916;SDS011;11624;53.250;7.456;2023-01-15T05:32:42;0.60;;;0.43;;
22916;SDS011;11624;53.250;7.456;2023-01-15T05:35:10;1.85;;;1.08;;
22916;SDS011;11624;53.250;7.456;2023-01-15T05:37:39;0.90;;;0.47;;
22916;SDS011;11624;53.250;7.456;2023-01-15T05:40:09;0.00;;;0.00;;
22916;SDS011;11624;53.250;7.456;2023-01-15T05:42:38;0.10;;;0.10;;
22916;SDS011;11624;53.250;7.456;2023-01-15T05:45:06;0.85;;;0.40;;
22916;SDS011;11624;53.250;7.456;2023-01-15T05:47:35;0.10;;;0.10;;
22916;SDS011;11624;53.250;7.456;2023-01-15T05:50:04;0.30;;;0.30;;
22916;SDS011;11624;53.250;7.456;2023-01-15T05:52:32;0.30;;;0.30;;
22916;SDS011;11624;53.250;7.456;2023-01-15T05:55:00;0.10;;;0.10;;
22916;SDS011;11624;53.250;7.456;2023-01-15T05:57:29;0.10;;;0.10;;
22916;SDS011;11624;53.250;7.456;2023-01-15T05:59:58;10.68;;;1.00;;
22916;SDS011;11624;53.250;7.456;2023-01-15T06:02:26;0.45;;;0.40;;
22916;SDS011;11624;53.250;7.456;2023-01-15T06:04:54;1.45;;;0.80;;
22916;SDS011;11624;53.250;7.456;2023-01-15T06:07:22;0.10;;;0.10;;
22916;SDS011;11624;53.250;7.456;2023-01-15T06:09:50;1.35;;;0.75;;
22916;SDS011;11624;53.250;7.456;2023-01-15T06:12:18;1.65;;;0.90;;
22916;SDS011;11624;53.250;7.456;2023-01-15T06:14:47;0.85;;;0.63;;
22916;SDS011;11624;53.250;7.456;2023-01-15T06:17:15;0.65;;;0.43;;
22916;SDS011;11624;53.250;7.456;2023-01-15T06:19:43;16.85;;;2.85;;
22916;SDS011;11624;53.250;7.456;2023-01-15T06:22:11;13.15;;;1.40;;
22916;SDS011;11624;53.250;7.456;2023-01-15T06:24:39;17.70;;;2.70;;
22916;SDS011;11624;53.250;7.456;2023-01-15T06:27:08;15.40;;;2.83;;
22916;SDS011;11624;53.250;7.456;2023-01-15T06:29:36;18.98;;;2.58;;
22916;SDS011;11624;53.250;7.456;2023-01-15T06:32:05;16.00;;;2.47;;
22916;SDS011;11624;53.250;7.456;2023-01-15T06:34:33;14.98;;;2.03;;
22916;SDS011;11624;53.250;7.456;2023-01-15T06:37:01;12.45;;;1.92;;
22916;SDS011;11624;53.250;7.456;2023-01-15T06:39:29;13.80;;;2.27;;
22916;SDS011;11624;53.250;7.456;2023-01-15T06:41:57;12.73;;;2.25;;
22916;SDS011;11624;53.250;7.456;2023-01-15T06:44:42;16.77;;;2.77;;
22916;SDS011;11624;53.250;7.456;2023-01-15T06:47:29;13.38;;;2.38;;
22916;SDS011;11624;53.250;7.456;2023-01-15T06:49:57;18.42;;;2.13;;
22916;SDS011;11624;53.250;7.456;2023-01-15T06:52:25;14.52;;;2.00;;
22916;SDS011;11624;53.250;7.456;2023-01-15T06:54:54;23.63;;;2.60;;
22916;SDS011;11624;53.250;7.456;2023-01-15T06:57:23;15.38;;;2.30;;
22916;SDS011;11624;53.250;7.456;2023-01-15T06:59:51;16.33;;;2.45;;
22916;SDS011;11624;53.250;7.456;2023-01-15T07:02:19;14.20;;;2.22;;
22916;SDS011;11624;53.250;7.456;2023-01-15T07:04:49;15.23;;;2.47;;
22916;SDS011;11624;53.250;7.456;2023-01-15T07:07:19;16.75;;;3.15;;
22916;SDS011;11624;53.250;7.456;2023-01-15T07:09:47;14.88;;;3.10;;
22916;SDS011;11624;53.250;7.456;2023-01-15T07:12:16;11.98;;;2.22;;
22916;SDS011;11624;53.250;7.456;2023-01-15T07:14:44;16.02;;;2.10;;
22916;SDS011;11624;53.250;7.456;2023-01-15T07:17:12;18.52;;;2.83;;
22916;SDS011;11624;53.250;7.456;2023-01-15T07:19:41;16.40;;;2.37;;
22916;SDS011;11624;53.250;7.456;2023-01-15T07:22:10;14.65;;;2.53;;
22916;SDS011;11624;53.250;7.456;2023-01-15T07:24:38;14.55;;;2.42;;
22916;SDS011;11624;53.250;7.456;2023-01-15T07:27:06;11.75;;;2.00;;
22916;SDS011;11624;53.250;7.456;2023-01-15T07:29:34;12.83;;;2.03;;
22916;SDS011;11624;53.250;7.456;2023-01-15T07:32:03;15.90;;;2.47;;
22916;SDS011;11624;53.250;7.456;2023-01-15T07:34:31;10.70;;;2.83;;
22916;SDS011;11624;53.250;7.456;2023-01-15T07:36:59;12.33;;;2.50;;
22916;SDS011;11624;53.250;7.456;2023-01-15T07:39:29;12.17;;;3.00;;
22916;SDS011;11624;53.250;7.456;2023-01-15T07:41:58;14.20;;;3.13;;
22916;SDS011;11624;53.250;7.456;2023-01-15T07:44:43;12.85;;;2.42;;
22916;SDS011;11624;53.250;7.456;2023-01-15T07:47:29;16.83;;;2.80;;
22916;SDS011;11624;53.250;7.456;2023-01-15T07:50:16;13.83;;;2.30;;
22916;SDS011;11624;53.250;7.456;2023-01-15T07:52:45;13.77;;;2.38;;
22916;SDS011;11624;53.250;7.456;2023-01-15T07:55:15;13.93;;;2.57;;
22916;SDS011;11624;53.250;7.456;2023-01-15T07:57:43;16.55;;;2.30;;
22916;SDS011;11624;53.250;7.456;2023-01-15T08:00:12;14.50;;;1.90;;
22916;SDS011;11624;53.250;7.456;2023-01-15T08:02:42;10.95;;;2.58;;
22916;SDS011;11624;53.250;7.456;2023-01-15T08:05:11;10.98;;;2.10;;
22916;SDS011;11624;53.250;7.456;2023-01-15T08:07:39;13.50;;;2.00;;
22916;SDS011;11624;53.250;7.456;2023-01-15T08:10:09;10.60;;;1.52;;
22916;SDS011;11624;53.250;7.456;2023-01-15T08:12:40;11.03;;;2.13;;
22916;SDS011;11624;53.250;7.456;2023-01-15T08:15:26;16.45;;;2.13;;
22916;SDS011;11624;53.250;7.456;2023-01-15T08:17:57;10.20;;;2.03;;
22916;SDS011;11624;53.250;7.456;2023-01-15T08:20:25;8.80;;;1.50;;
22916;SDS011;11624;53.250;7.456;2023-01-15T08:22:53;12.57;;;1.95;;
22916;SDS011;11624;53.250;7.456;2023-01-15T08:25:22;14.70;;;2.63;;
22916;SDS011;11624;53.250;7.456;2023-01-15T08:27:53;14.90;;;2.17;;
22916;SDS011;11624;53.250;7.456;2023-01-15T08:30:22;14.85;;;2.42;;
22916;SDS011;11624;53.250;7.456;2023-01-15T08:32:52;11.20;;;2.20;;
22916;SDS011;11624;53.250;7.456;2023-01-15T08:35:25;15.45;;;2.05;;
22916;SDS011;11624;53.250;7.456;2023-01-15T08:37:53;13.15;;;2.35;;
22916;SDS011;11624;53.250;7.456;2023-01-15T08:40:21;12.80;;;2.00;;
22916;SDS011;11624;53.250;7.456;2023-01-15T08:42:49;9.00;;;2.10;;
22916;SDS011;11624;53.250;7.456;2023-01-15T08:45:18;13.73;;;2.07;;
22916;SDS011;11624;53.250;7.456;2023-01-15T08:47:47;9.55;;;1.67;;
22916;SDS011;11624;53.250;7.456;2023-01-15T08:50:15;14.50;;;1.98;;
22916;SDS011;11624;53.250;7.456;2023-01-15T08:52:43;12.95;;;1.95;;
22916;SDS011;11624;53.250;7.456;2023-01-15T08:55:11;9.95;;;1.80;;
22916;SDS011;11624;53.250;7.456;2023-01-15T08:57:39;10.88;;;1.70;;
22916;SDS011;11624;53.250;7.456;2023-01-15T09:00:07;10.95;;;1.85;;
22916;SDS011;11624;53.250;7.456;2023-01-15T09:02:38;11.25;;;2.47;;
22916;SDS011;11624;53.250;7.456;2023-01-15T09:05:06;10.18;;;1.77;;
22916;SDS011;11624;53.250;7.456;2023-01-15T09:07:34;22.83;;;4.05;;
22916;SDS011;11624;53.250;7.456;2023-01-15T09:10:02;15.50;;;2.75;;
22916;SDS011;11624;53.250;7.456;2023-01-15T09:12:31;12.87;;;2.57;;
22916;SDS011;11624;53.250;7.456;2023-01-15T09:14:59;16.52;;;2.97;;
22916;SDS011;11624;53.250;7.456;2023-01-15T09:17:29;10.55;;;1.88;;
22916;SDS011;11624;53.250;7.456;2023-01-15T09:20:00;13.27;;;2.47;;
22916;SDS011;11624;53.250;7.456;2023-01-15T09:22:28;11.75;;;2.00;;
22916;SDS011;11624;53.250;7.456;2023-01-15T09:24:57;18.65;;;2.53;;
22916;SDS011;11624;53.250;7.456;2023-01-15T09:27:25;13.07;;;2.25;;
22916;SDS011;11624;53.250;7.456;2023-01-15T09:29:58;11.27;;;1.83;;
22916;SDS011;11624;53.250;7.456;2023-01-15T09:32:26;16.25;;;2.35;;
22916;SDS011;11624;53.250;7.456;2023-01-15T09:34:55;9.35;;;1.70;;
22916;SDS011;11624;53.250;7.456;2023-01-15T09:37:24;12.75;;;1.90;;
22916;SDS011;11624;53.250;7.456;2023-01-15T09:39:52;12.70;;;2.00;;
22916;SDS011;11624;53.250;7.456;2023-01-15T09:42:27;10.00;;;1.83;;
22916;SDS011;11624;53.250;7.456;2023-01-15T09:45:10;17.88;;;2.50;;
22916;SDS011;11624;53.250;7.456;2023-01-15T09:47:45;9.38;;;1.77;;
22916;SDS011;11624;53.250;7.456;2023-01-15T09:50:28;12.02;;;1.95;;
22916;SDS011;11624;53.250;7.456;2023-01-15T09:53:08;14.48;;;2.10;;
22916;SDS011;11624;53.250;7.456;2023-01-15T09:55:44;14.80;;;1.95;;
22916;SDS011;11624;53.250;7.456;2023-01-15T09:58:14;13.38;;;1.60;;
22916;SDS011;11624;53.250;7.456;2023-01-15T10:00:45;15.90;;;2.30;;
22916;SDS011;11624;53.250;7.456;2023-01-15T10:03:20;8.97;;;1.47;;
22916;SDS011;11624;53.250;7.456;2023-01-15T10:05:55;7.77;;;1.40;;
22916;SDS011;11624;53.250;7.456;2023-01-15T10:08:35;10.93;;;1.77;;
22916;SDS011;11624;53.250;7.456;2023-01-15T10:11:15;8.63;;;1.30;;
22916;SDS011;11624;53.250;7.456;2023-01-15T10:14:11;12.40;;;1.70;;
22916;SDS011;11624;53.250;7.456;2023-01-15T10:16:49;9.53;;;1.60;;
22916;SDS011;11624;53.250;7.456;2023-01-15T10:19:17;8.18;;;1.58;;
22916;SDS011;11624;53.250;7.456;2023-01-15T10:21:47;9.52;;;1.80;;
22916;SDS011;11624;53.250;7.456;2023-01-15T10:24:23;11.30;;;1.77;;
22916;SDS011;11624;53.250;7.456;2023-01-15T10:26:55;11.88;;;1.85;;
22916;SDS011;11624;53.250;7.456;2023-01-15T10:29:25;10.10;;;1.83;;
22916;SDS011;11624;53.250;7.456;2023-01-15T10:32:01;7.75;;;1.23;;
22916;SDS011;11624;53.250;7.456;2023-01-15T10:37:46;8.20;;;1.52;;
22916;SDS011;11624;53.250;7.456;2023-01-15T10:43:28;10.25;;;2.13;;
22916;SDS011;11624;53.250;7.456;2023-01-15T10:46:09;9.07;;;2.03;;
22916;SDS011;11624;53.250;7.456;2023-01-15T10:48:40;9.15;;;1.88;;
22916;SDS011;11624;53.250;7.456;2023-01-15T10:51:12;6.80;;;1.60;;
22916;SDS011;11624;53.250;7.456;2023-01-15T10:53:44;5.13;;;1.30;;
22916;SDS011;11624;53.250;7.456;2023-01-15T10:56:19;8.63;;;1.50;;
22916;SDS011;11624;53.250;7.456;2023-01-15T10:58:56;9.80;;;1.70;;
22916;SDS011;11624;53.250;7.456;2023-01-15T11:01:30;8.65;;;1.90;;
22916;SDS011;11624;53.250;7.456;2023-01-15T11:03:59;10.07;;;1.80;;
22916;SDS011;11624;53.250;7.456;2023-01-15T11:06:28;8.30;;;1.90;;
22916;SDS011;11624;53.250;7.456;2023-01-15T11:08:57;12.38;;;1.65;;
22916;SDS011;11624;53.250;7.456;2023-01-15T11:11:39;12.32;;;1.77;;
22916;SDS011;11624;53.250;7.456;2023-01-15T11:14:37;7.53;;;1.60;;
22916;SDS011;11624;53.250;7.456;2023-01-15T11:17:24;10.10;;;1.33;;
22916;SDS011;11624;53.250;7.456;2023-01-15T11:20:16;7.68;;;1.52;;
22916;SDS011;11624;53.250;7.456;2023-01-15T11:22:51;11.00;;;1.58;;
22916;SDS011;11624;53.250;7.456;2023-01-15T11:25:24;8.00;;;1.50;;
22916;SDS011;11624;53.250;7.456;2023-01-15T11:27:55;8.45;;;1.45;;
22916;SDS011;11624;53.250;7.456;2023-01-15T11:30:25;11.05;;;1.70;;
22916;SDS011;11624;53.250;7.456;2023-01-15T11:32:56;6.75;;;1.50;;
22916;SDS011;11624;53.250;7.456;2023-01-15T11:35:25;7.70;;;1.13;;
22916;SDS011;11624;53.250;7.456;2023-01-15T11:38:04;8.48;;;1.42;;
22916;SDS011;11624;53.250;7.456;2023-01-15T11:40:32;5.75;;;1.02;;
22916;SDS011;11624;53.250;7.456;2023-01-15T11:43:02;8.98;;;1.90;;
22916;SDS011;11624;53.250;7.456;2023-01-15T11:45:48;8.93;;;1.52;;
22916;SDS011;11624;53.250;7.456;2023-01-15T11:48:42;7.40;;;1.58;;
22916;SDS011;11624;53.250;7.456;2023-01-15T11:51:29;9.70;;;1.50;;
22916;SDS011;11624;53.250;7.456;2023-01-15T11:54:01;12.52;;;1.45;;
22916;SDS011;11624;53.250;7.456;2023-01-15T11:56:31;11.52;;;1.77;;
22916;SDS011;11624;53.250;7.456;2023-01-15T11:59:08;9.45;;;1.75;;
22916;SDS011;11624;53.250;7.456;2023-01-15T12:01:39;10.82;;;1.70;;
22916;SDS011;11624;53.250;7.456;2023-01-15T12:04:26;10.38;;;2.03;;
22916;SDS011;11624;53.250;7.456;2023-01-15T12:06:59;14.18;;;2.03;;
22916;SDS011;11624;53.250;7.456;2023-01-15T12:09:31;8.32;;;1.85;;
22916;SDS011;11624;53.250;7.456;2023-01-15T12:12:09;10.30;;;1.75;;
22916;SDS011;11624;53.250;7.456;2023-01-15T12:14:50;13.00;;;2.13;;
22916;SDS011;11624;53.250;7.456;2023-01-15T12:17:33;15.75;;;2.30;;
22916;SDS011;11624;53.250;7.456;2023-01-15T12:20:24;15.07;;;1.95;;
22916;SDS011;11624;53.250;7.456;2023-01-15T12:23:02;15.70;;;1.95;;
22916;SDS011;11624;53.250;7.456;2023-01-15T12:25:43;11.18;;;2.20;;
22916;SDS011;11624;53.250;7.456;2023-01-15T12:28:20;18.52;;;2.53;;
22916;SDS011;11624;53.250;7.456;2023-01-15T12:30:56;10.60;;;2.33;;
22916;SDS011;11624;53.250;7.456;2023-01-15T12:33:36;13.00;;;2.53;;
22916;SDS011;11624;53.250;7.456;2023-01-15T12:36:13;11.50;;;2.13;;
22916;SDS011;11624;53.250;7.456;2023-01-15T12:38:49;16.20;;;2.15;;
22916;SDS011;11624;53.250;7.456;2023-01-15T12:41:22;10.85;;;2.03;;
22916;SDS011;11624;53.250;7.456;2023-01-15T12:44:13;15.80;;;2.35;;
22916;SDS011;11624;53.250;7.456;2023-01-15T12:47:06;16.35;;;2.78;;
22916;SDS011;11624;53.250;7.456;2023-01-15T12:49:42;14.95;;;2.30;;
22916;SDS011;11624;53.250;7.456;2023-01-15T12:52:17;15.63;;;2.22;;
22916;SDS011;11624;53.250;7.456;2023-01-15T12:54:50;13.55;;;2.05;;
22916;SDS011;11624;53.250;7.456;2023-01-15T12:57:29;18.27;;;2.15;;
22916;SDS011;11624;53.250;7.456;2023-01-15T13:00:00;19.13;;;2.50;;
22916;SDS011;11624;53.250;7.456;2023-01-15T13:02:36;15.27;;;2.35;;
22916;SDS011;11624;53.250;7.456;2023-01-15T13:05:15;17.20;;;1.90;;
22916;SDS011;11624;53.250;7.456;2023-01-15T13:07:48;17.70;;;2.08;;
22916;SDS011;11624;53.250;7.456;2023-01-15T13:10:21;17.20;;;2.63;;
22916;SDS011;11624;53.250;7.456;2023-01-15T13:12:52;16.70;;;2.80;;
22916;SDS011;11624;53.250;7.456;2023-01-15T13:15:24;11.30;;;2.53;;
22916;SDS011;11624;53.250;7.456;2023-01-15T13:18:00;10.98;;;2.22;;
22916;SDS011;11624;53.250;7.456;2023-01-15T13:20:39;11.88;;;2.30;;
22916;SDS011;11624;53.250;7.456;2023-01-15T13:23:17;16.38;;;2.45;;
22916;SDS011;11624;53.250;7.456;2023-01-15T13:26:05;15.50;;;2.35;;
22916;SDS011;11624;53.250;7.456;2023-01-15T13:28:47;12.68;;;2.05;;
22916;SDS011;11624;53.250;7.456;2023-01-15T13:31:34;11.85;;;2.30;;
22916;SDS011;11624;53.250;7.456;2023-01-15T13:34:16;8.52;;;1.25;;
22916;SDS011;11624;53.250;7.456;2023-01-15T13:36:52;10.02;;;1.90;;
22916;SDS011;11624;53.250;7.456;2023-01-15T13:39:33;12.65;;;1.83;;
22916;SDS011;11624;53.250;7.456;2023-01-15T13:42:05;7.60;;;1.75;;
22916;SDS011;11624;53.250;7.456;2023-01-15T13:45:18;7.60;;;1.48;;
22916;SDS011;11624;53.250;7.456;2023-01-15T13:47:54;7.83;;;1.33;;
22916;SDS011;11624;53.250;7.456;2023-01-15T13:50:28;7.20;;;0.70;;
22916;SDS011;11624;53.250;7.456;2023-01-15T13:53:05;5.20;;;0.97;;
22916;SDS011;11624;53.250;7.456;2023-01-15T13:55:41;7.87;;;1.37;;
22916;SDS011;11624;53.250;7.456;2023-01-15T13:58:18;4.97;;;1.20;;
22916;SDS011;11624;53.250;7.456;2023-01-15T14:00:59;4.43;;;0.63;;
22916;SDS011;11624;53.250;7.456;2023-01-15T14:03:29;4.20;;;0.80;;
22916;SDS011;11624;53.250;7.456;2023-01-15T14:06:00;5.68;;;1.10;;
22916;SDS011;11624;53.250;7.456;2023-01-15T14:08:37;3.30;;;0.73;;
22916;SDS011;11624;53.250;7.456;2023-01-15T14:14:24;2.42;;;0.50;;
22916;SDS011;11624;53.250;7.456;2023-01-15T14:20:01;5.67;;;1.07;;
22916;SDS011;11624;53.250;7.456;2023-01-15T14:22:49;4.53;;;0.70;;
22916;SDS011;11624;53.250;7.456;2023-01-15T14:25:34;0.97;;;0.60;;
22916;SDS011;11624;53.250;7.456;2023-01-15T14:28:19;3.77;;;0.70;;
22916;SDS011;11624;53.250;7.456;2023-01-15T14:31:05;7.53;;;1.27;;
22916;SDS011;11624;53.250;7.456;2023-01-15T14:33:44;0.20;;;0.20;;
22916;SDS011;11624;53.250;7.456;2023-01-15T14:36:22;0.00;;;0.00;;
22916;SDS011;11624;53.250;7.456;2023-01-15T14:38:55;0.00;;;0.00;;
22916;SDS011;11624;53.250;7.456;2023-01-15T14:41:26;0.00;;;0.00;;
22916;SDS011;11624;53.250;7.456;2023-01-15T14:43:57;0.00;;;0.00;;
22916;SDS011;11624;53.250;7.456;2023-01-15T14:46:27;0.43;;;0.43;;
22916;SDS011;11624;53.250;7.456;2023-01-15T14:48:59;0.27;;;0.27;;
22916;SDS011;11624;53.250;7.456;2023-01-15T14:51:28;0.20;;;0.20;;
22916;SDS011;11624;53.250;7.456;2023-01-15T14:54:01;2.33;;;0.67;;
22916;SDS011;11624;53.250;7.456;2023-01-15T14:56:31;0.43;;;0.30;;
22916;SDS011;11624;53.250;7.456;2023-01-15T14:59:03;0.30;;;0.20;;
22916;SDS011;11624;53.250;7.456;2023-01-15T15:01:40;0.00;;;0.00;;
22916;SDS011;11624;53.250;7.456;2023-01-15T15:04:12;0.05;;;0.05;;
22916;SDS011;11624;53.250;7.456;2023-01-15T15:06:49;0.28;;;0.28;;
22916;SDS011;11624;53.250;7.456;2023-01-15T15:09:27;1.10;;;0.87;;
22916;SDS011;11624;53.250;7.456;2023-01-15T15:12:04;0.05;;;0.05;;
22916;SDS011;11624;53.250;7.456;2023-01-15T15:15:01;0.10;;;0.10;;
22916;SDS011;11624;53.250;7.456;2023-01-15T15:17:36;0.55;;;0.32;;
22916;SDS011;11624;53.250;7.456;2023-01-15T15:20:17;0.10;;;0.10;;
22916;SDS011;11624;53.250;7.456;2023-01-15T15:22:52;0.00;;;0.00;;
22916;SDS011;11624;53.250;7.456;2023-01-15T15:25:26;0.20;;;0.20;;
22916;SDS011;11624;53.250;7.456;2023-01-15T15:28:03;0.00;;;0.00;;
22916;SDS011;11624;53.250;7.456;2023-01-15T15:30:33;0.10;;;0.10;;